createdAt,value
2018-11-10T00:01:54.932Z,22.53
2018-11-10T00:04:24.095Z,31.40
2018-11-10T00:06:52.597Z,27.40
2018-11-10T00:09:21.258Z,24.73
2018-11-10T00:11:50.042Z,25.60
2018-11-10T00:14:18.480Z,27.00
2018-11-10T00:16:47.278Z,20.33
2018-11-10T00:19:16.504Z,24.23
2018-11-10T00:21:45.021Z,20.57
2018-11-10T00:24:14.871Z,27.63
2018-11-10T00:26:43.562Z,29.77
2018-11-10T00:29:11.986Z,25.60
2018-11-10T00:31:40.779Z,21.87
2018-11-10T00:34:09.211Z,24.13
2018-11-10T00:36:37.867Z,25.60
2018-11-10T00:39:08.344Z,21.57
2018-11-10T00:41:38.254Z,23.97
2018-11-10T00:44:07.292Z,20.10
2018-11-10T00:46:36.625Z,25.50
2018-11-10T00:49:06.205Z,20.10
2018-11-10T00:51:34.984Z,22.47
2018-11-10T00:54:03.477Z,21.60
2018-11-10T00:56:32.188Z,19.53
2018-11-10T00:59:01.007Z,30.23
2018-11-10T01:01:29.668Z,23.50
2018-11-10T01:03:58.360Z,23.83
2018-11-10T01:06:27.138Z,18.83
2018-11-10T01:08:56.046Z,25.37
2018-11-10T01:11:24.648Z,23.53
2018-11-10T01:13:53.575Z,23.93
2018-11-10T01:16:22.111Z,20.57
2018-11-10T01:18:50.656Z,23.77
2018-11-10T01:21:19.412Z,24.07
2018-11-10T01:23:47.793Z,20.60
2018-11-10T01:26:16.582Z,23.60
2018-11-10T01:28:45.012Z,18.03
2018-11-10T01:31:14.107Z,19.33
2018-11-10T01:33:43.075Z,37.40
2018-11-10T01:36:12.002Z,21.10
2018-11-10T01:38:40.591Z,18.53
2018-11-10T01:41:09.035Z,21.03
2018-11-10T01:43:37.775Z,20.13
2018-11-10T01:46:06.310Z,28.00
2018-11-10T01:48:35.293Z,20.37
2018-11-10T01:51:03.881Z,21.13
2018-11-10T01:53:32.289Z,18.70
2018-11-10T01:56:00.898Z,20.97
2018-11-10T01:58:29.664Z,22.80
2018-11-10T02:00:58.689Z,22.27
2018-11-10T02:03:27.555Z,17.37
2018-11-10T02:05:55.997Z,15.93
2018-11-10T02:08:24.432Z,20.80
2018-11-10T02:10:53.219Z,21.00
2018-11-10T02:13:21.963Z,18.93
2018-11-10T02:15:50.573Z,16.90
2018-11-10T02:18:19.437Z,15.20
2018-11-10T02:20:48.471Z,18.20
2018-11-10T02:23:17.209Z,20.70
2018-11-10T02:25:45.843Z,19.00
2018-11-10T02:28:14.763Z,16.20
2018-11-10T02:30:43.746Z,17.27
2018-11-10T02:33:12.227Z,17.60
2018-11-10T02:35:40.734Z,19.97
2018-11-10T02:38:09.411Z,19.40
2018-11-10T02:40:38.083Z,16.83
2018-11-10T02:43:07.041Z,21.87
2018-11-10T02:45:35.930Z,23.67
2018-11-10T02:48:04.583Z,17.90
2018-11-10T02:50:33.308Z,20.93
2018-11-10T02:53:01.837Z,21.70
2018-11-10T02:55:30.287Z,28.93
2018-11-10T02:57:58.804Z,27.67
2018-11-10T03:00:27.234Z,23.47
2018-11-10T03:02:55.836Z,22.00
2018-11-10T03:05:24.435Z,25.63
2018-11-10T03:07:53.110Z,31.60
2018-11-10T03:10:21.833Z,24.63
2018-11-10T03:12:50.524Z,28.43
2018-11-10T03:15:18.996Z,20.00
2018-11-10T03:17:48.426Z,21.00
2018-11-10T03:20:16.858Z,26.63
2018-11-10T03:22:45.905Z,23.80
2018-11-10T03:25:14.648Z,21.23
2018-11-10T03:27:43.273Z,22.40
2018-11-10T03:30:12.533Z,22.53
2018-11-10T03:32:41.297Z,27.83
2018-11-10T03:35:10.701Z,21.30
2018-11-10T03:37:39.571Z,24.90
2018-11-10T03:40:08.908Z,20.67
2018-11-10T03:42:37.980Z,25.70
2018-11-10T03:45:06.985Z,23.60
2018-11-10T03:47:35.770Z,22.77
2018-11-10T03:50:04.628Z,27.07
2018-11-10T03:52:33.225Z,27.87
2018-11-10T03:55:02.081Z,28.80
2018-11-10T04:00:05.185Z,26.70
2018-11-10T04:02:33.910Z,21.23
2018-11-10T04:05:02.645Z,21.87
2018-11-10T04:07:31.392Z,20.60
2018-11-10T04:09:59.805Z,24.60
2018-11-10T04:12:28.862Z,27.93
2018-11-10T04:14:57.308Z,43.27
2018-11-10T04:17:26.078Z,19.83
2018-11-10T04:19:54.812Z,23.40
2018-11-10T04:22:27.836Z,18.93
2018-11-10T04:24:56.305Z,18.60
2018-11-10T04:27:25.234Z,20.57
2018-11-10T04:29:54.272Z,23.03
2018-11-10T04:32:22.986Z,23.57
2018-11-10T04:34:51.725Z,15.33
2018-11-10T04:37:20.566Z,19.00
2018-11-10T04:39:49.326Z,17.90
2018-11-10T04:42:17.833Z,16.30
2018-11-10T04:44:46.248Z,17.23
2018-11-10T04:47:15.345Z,25.23
2018-11-10T04:49:43.953Z,22.27
2018-11-10T04:52:12.769Z,20.00
2018-11-10T04:54:41.547Z,16.60
2018-11-10T04:57:09.975Z,17.23
2018-11-10T04:59:38.476Z,20.03
2018-11-10T05:02:07.125Z,16.43
2018-11-10T05:04:35.892Z,22.33
2018-11-10T05:07:04.372Z,21.87
2018-11-10T05:09:32.872Z,17.17
2018-11-10T05:12:01.317Z,20.30
2018-11-10T05:14:29.964Z,21.70
2018-11-10T05:16:58.804Z,25.03
2018-11-10T05:19:27.580Z,34.80
2018-11-10T05:21:56.348Z,22.00
2018-11-10T05:24:24.784Z,53.90
2018-11-10T05:26:53.714Z,17.93
2018-11-10T05:29:22.284Z,24.30
2018-11-10T05:31:50.698Z,17.20
2018-11-10T05:34:19.180Z,16.43
2018-11-10T05:36:48.571Z,13.70
2018-11-10T05:39:17.634Z,18.17
2018-11-10T05:41:46.687Z,16.13
2018-11-10T05:44:15.105Z,44.93
2018-11-10T05:46:43.633Z,15.50
2018-11-10T05:49:12.030Z,17.47
2018-11-10T05:51:40.755Z,20.40
2018-11-10T05:54:09.617Z,19.63
2018-11-10T05:56:38.246Z,19.47
2018-11-10T05:59:07.403Z,21.80
2018-11-10T06:01:36.099Z,16.83
2018-11-10T06:04:04.839Z,19.60
2018-11-10T06:06:34.179Z,14.23
2018-11-10T06:09:02.744Z,17.90
2018-11-10T06:11:31.525Z,16.50
2018-11-10T06:14:00.457Z,26.10
2018-11-10T06:16:29.010Z,15.73
2018-11-10T06:18:57.603Z,18.80
2018-11-10T06:21:26.257Z,20.80
2018-11-10T06:23:54.736Z,23.23
2018-11-10T06:26:23.215Z,22.20
2018-11-10T06:28:51.749Z,20.70
2018-11-10T06:31:20.362Z,44.80
2018-11-10T06:33:48.881Z,28.50
2018-11-10T06:36:17.515Z,64.43
2018-11-10T06:38:46.082Z,37.40
2018-11-10T06:41:15.185Z,61.80
2018-11-10T06:43:44.028Z,49.70
2018-11-10T06:46:12.474Z,47.93
2018-11-10T06:48:41.217Z,31.17
2018-11-10T06:51:10.552Z,72.33
2018-11-10T06:53:40.317Z,37.33
2018-11-10T06:56:08.872Z,106.70
2018-11-10T06:58:37.597Z,23.93
2018-11-10T07:01:06.671Z,61.30
2018-11-10T07:03:35.438Z,23.47
2018-11-10T07:06:04.161Z,24.50
2018-11-10T07:08:32.985Z,23.10
2018-11-10T07:11:01.557Z,23.07
2018-11-10T07:13:30.020Z,31.37
2018-11-10T07:15:58.803Z,42.73
2018-11-10T07:18:27.239Z,39.40
2018-11-10T07:20:56.273Z,20.67
2018-11-10T07:23:24.727Z,22.33
2018-11-10T07:25:53.789Z,24.00
2018-11-10T07:28:22.740Z,21.27
2018-11-10T07:30:51.177Z,24.07
2018-11-10T07:33:20.016Z,23.60
2018-11-10T07:35:48.898Z,22.30
2018-11-10T07:38:17.287Z,26.23
2018-11-10T07:40:45.752Z,27.80
2018-11-10T07:43:14.191Z,20.67
2018-11-10T07:45:43.018Z,25.47
2018-11-10T07:48:11.505Z,26.07
2018-11-10T07:50:40.048Z,26.97
2018-11-10T07:53:08.732Z,24.33
2018-11-10T07:55:37.350Z,18.80
2018-11-10T07:58:06.392Z,16.67
2018-11-10T08:00:34.956Z,17.27
2018-11-10T08:03:03.853Z,20.00
2018-11-10T08:05:33.208Z,16.57
2018-11-10T08:08:01.607Z,15.00
2018-11-10T08:10:30.608Z,15.00
2018-11-10T08:12:59.453Z,13.67
2018-11-10T08:15:28.635Z,14.63
2018-11-10T08:17:57.079Z,14.17
2018-11-10T08:20:25.549Z,15.97
2018-11-10T08:22:54.443Z,11.67
2018-11-10T08:25:22.866Z,11.70
2018-11-10T08:27:51.679Z,19.23
2018-11-10T08:30:20.524Z,13.60
2018-11-10T08:32:49.384Z,14.60
2018-11-10T08:35:18.466Z,13.80
2018-11-10T08:37:47.251Z,17.50
2018-11-10T08:40:16.665Z,14.53
2018-11-10T08:42:45.434Z,14.83
2018-11-10T08:45:14.716Z,19.13
2018-11-10T08:47:44.559Z,13.40
2018-11-10T08:50:14.642Z,15.20
2018-11-10T08:52:43.721Z,16.10
2018-11-10T08:55:13.619Z,12.40
2018-11-10T08:57:43.207Z,13.30
2018-11-10T09:00:12.167Z,16.53
2018-11-10T09:02:40.980Z,16.43
2018-11-10T09:05:10.777Z,13.87
2018-11-10T09:07:39.483Z,16.47
2018-11-10T09:10:09.674Z,13.57
2018-11-10T09:12:38.379Z,12.80
2018-11-10T09:15:09.117Z,12.03
2018-11-10T09:17:37.543Z,12.23
2018-11-10T09:20:08.861Z,11.15
2018-11-10T09:22:37.241Z,15.10
2018-11-10T09:25:08.617Z,12.13
2018-11-10T09:27:37.737Z,10.97
2018-11-10T09:30:07.931Z,14.20
2018-11-10T09:32:36.334Z,11.77
2018-11-10T09:35:05.630Z,12.50
2018-11-10T09:37:34.580Z,12.10
2018-11-10T09:40:03.410Z,13.13
2018-11-10T09:42:32.063Z,12.07
2018-11-10T09:45:00.686Z,16.30
2018-11-10T09:47:29.950Z,12.20
2018-11-10T09:49:58.896Z,11.33
2018-11-10T09:52:27.615Z,10.73
2018-11-10T09:54:56.037Z,9.30
2018-11-10T09:57:25.142Z,11.30
2018-11-10T09:59:54.075Z,8.70
2018-11-10T10:02:23.237Z,10.93
2018-11-10T10:04:51.386Z,13.87
2018-11-10T10:07:19.830Z,9.80
2018-11-10T10:09:48.274Z,10.13
2018-11-10T10:12:17.449Z,10.07
2018-11-10T10:14:46.595Z,8.80
2018-11-10T10:17:15.035Z,10.57
2018-11-10T10:19:44.374Z,12.43
2018-11-10T10:22:12.805Z,10.40
2018-11-10T10:24:41.739Z,13.40
2018-11-10T10:27:10.343Z,11.70
2018-11-10T10:29:39.296Z,9.03
2018-11-10T10:32:08.107Z,14.70
2018-11-10T10:34:36.939Z,12.63
2018-11-10T10:37:06.500Z,13.70
2018-11-10T10:39:35.159Z,8.27
2018-11-10T10:42:03.645Z,10.43
2018-11-10T10:44:32.157Z,9.37
2018-11-10T10:47:00.918Z,9.73
2018-11-10T10:49:29.396Z,10.17
2018-11-10T10:51:58.275Z,12.50
2018-11-10T10:54:26.688Z,9.47
2018-11-10T10:56:55.886Z,9.90
2018-11-10T10:59:24.386Z,9.30
2018-11-10T11:01:58.374Z,12.57
2018-11-10T11:06:39.314Z,10.87
2018-11-10T11:09:08.206Z,11.50
2018-11-10T11:11:36.633Z,10.30
2018-11-10T11:14:05.057Z,11.43
2018-11-10T11:16:33.816Z,12.93
2018-11-10T11:19:02.543Z,14.00
2018-11-10T11:21:31.034Z,11.77
2018-11-10T11:23:59.829Z,11.30
2018-11-10T11:26:28.542Z,10.40
2018-11-10T11:28:57.499Z,9.13
2018-11-10T11:31:26.547Z,9.90
2018-11-10T11:33:55.029Z,7.90
2018-11-10T11:36:23.464Z,10.70
2018-11-10T11:38:52.013Z,9.67
2018-11-10T11:41:20.747Z,14.07
2018-11-10T11:43:49.664Z,9.37
2018-11-10T11:46:18.182Z,11.67
2018-11-10T11:48:46.843Z,9.00
2018-11-10T11:51:15.558Z,9.40
2018-11-10T11:53:44.585Z,9.97
2018-11-10T11:56:13.336Z,8.83
2018-11-10T11:58:42.119Z,9.07
2018-11-10T12:01:10.916Z,8.23
2018-11-10T12:03:39.810Z,7.03
2018-11-10T12:06:08.348Z,6.93
2018-11-10T12:08:36.904Z,7.10
2018-11-10T12:11:05.543Z,6.17
2018-11-10T12:13:34.570Z,7.53
2018-11-10T12:16:03.636Z,5.80
2018-11-10T12:18:32.331Z,5.93
2018-11-10T12:21:01.187Z,6.03
2018-11-10T12:23:29.610Z,6.67
2018-11-10T12:25:58.749Z,8.63
2018-11-10T12:28:27.611Z,7.40
2018-11-10T12:30:56.504Z,5.93
2018-11-10T12:33:25.159Z,6.60
2018-11-10T12:35:53.601Z,7.80
2018-11-10T12:38:22.415Z,5.97
2018-11-10T12:40:51.102Z,7.87
2018-11-10T12:43:20.107Z,7.10
2018-11-10T12:45:48.710Z,6.67
2018-11-10T12:48:17.432Z,5.50
2018-11-10T12:50:45.852Z,8.03
2018-11-10T12:53:14.367Z,6.67
2018-11-10T12:55:43.114Z,6.03
2018-11-10T12:58:11.558Z,7.23
2018-11-10T13:00:40.128Z,8.57
2018-11-10T13:03:09.518Z,6.77
2018-11-10T13:05:38.416Z,13.67
2018-11-10T13:08:07.109Z,6.90
2018-11-10T13:10:35.664Z,8.43
2018-11-10T13:13:04.328Z,8.53
2018-11-10T13:15:33.004Z,6.67
2018-11-10T13:18:01.440Z,6.40
2018-11-10T13:20:30.123Z,5.83
2018-11-10T13:22:59.181Z,8.90
2018-11-10T13:25:28.015Z,8.73
2018-11-10T13:27:57.055Z,8.93
2018-11-10T13:30:25.909Z,7.83
2018-11-10T13:32:54.590Z,7.07
2018-11-10T13:35:23.001Z,9.17
2018-11-10T13:37:51.962Z,7.83
2018-11-10T13:40:20.484Z,8.47
2018-11-10T13:42:49.254Z,7.60
2018-11-10T13:45:17.867Z,8.70
2018-11-10T13:47:46.657Z,10.47
2018-11-10T13:50:15.802Z,11.73
2018-11-10T13:52:45.320Z,8.27
2018-11-10T13:55:15.201Z,9.10
2018-11-10T13:57:43.884Z,10.30
2018-11-10T14:00:16.726Z,21.43
2018-11-10T14:02:45.726Z,15.73
2018-11-10T14:05:14.871Z,9.10
2018-11-10T14:07:43.792Z,15.63
2018-11-10T14:10:15.051Z,14.83
2018-11-10T14:12:44.544Z,11.43
2018-11-10T14:15:13.587Z,10.78
2018-11-10T14:17:42.458Z,8.53
2018-11-10T14:20:13.141Z,11.57
2018-11-10T14:22:41.691Z,9.90
2018-11-10T14:25:11.703Z,11.43
2018-11-10T14:27:41.125Z,10.53
2018-11-10T14:30:13.223Z,15.23
2018-11-10T14:32:42.453Z,10.80
2018-11-10T14:35:11.446Z,12.90
2018-11-10T14:37:39.926Z,12.27
2018-11-10T14:40:10.594Z,15.10
2018-11-10T14:42:40.168Z,14.70
2018-11-10T14:45:10.398Z,12.60
2018-11-10T14:47:39.627Z,15.50
2018-11-10T14:50:09.261Z,15.37
2018-11-10T14:52:38.230Z,15.53
2018-11-10T14:55:07.940Z,16.87
2018-11-10T14:57:36.898Z,17.13
2018-11-10T15:00:11.856Z,18.97
2018-11-10T15:02:40.449Z,18.90
2018-11-10T15:05:10.336Z,21.40
2018-11-10T15:07:39.578Z,21.70
2018-11-10T15:10:10.193Z,21.13
2018-11-10T15:12:38.759Z,18.50
2018-11-10T15:15:08.737Z,18.90
2018-11-10T15:17:38.097Z,22.70
2018-11-10T15:20:07.444Z,22.77
2018-11-10T15:22:36.429Z,24.50
2018-11-10T15:25:05.591Z,22.90
2018-11-10T15:27:34.748Z,25.87
2018-11-10T15:30:03.262Z,22.40
2018-11-10T15:32:31.673Z,23.50
2018-11-10T15:35:00.264Z,27.17
2018-11-10T15:37:28.925Z,24.97
2018-11-10T15:39:57.747Z,20.73
2018-11-10T15:42:26.157Z,28.67
2018-11-10T15:44:54.814Z,24.30
2018-11-10T15:47:23.552Z,27.67
2018-11-10T15:49:52.075Z,24.13
2018-11-10T15:52:21.178Z,27.73
2018-11-10T15:54:49.970Z,25.80
2018-11-10T15:57:19.021Z,26.77
2018-11-10T15:59:47.603Z,25.63
2018-11-10T16:02:16.925Z,27.73
2018-11-10T16:04:45.605Z,26.10
2018-11-10T16:07:14.488Z,29.20
2018-11-10T16:09:43.255Z,32.07
2018-11-10T16:12:12.750Z,26.33
2018-11-10T16:14:41.793Z,31.20
2018-11-10T16:17:10.443Z,27.90
2018-11-10T16:19:38.916Z,33.47
2018-11-10T16:22:07.764Z,30.97
2018-11-10T16:24:36.214Z,31.10
2018-11-10T16:27:04.987Z,36.70
2018-11-10T16:29:34.173Z,33.87
2018-11-10T16:32:03.035Z,29.80
2018-11-10T16:34:32.002Z,35.20
2018-11-10T16:37:00.670Z,27.17
2018-11-10T16:39:29.257Z,30.10
2018-11-10T16:41:58.287Z,30.80
2018-11-10T16:44:27.459Z,25.17
2018-11-10T16:46:56.391Z,28.97
2018-11-10T16:49:25.777Z,28.30
2018-11-10T16:51:54.752Z,32.03
2018-11-10T16:54:23.653Z,30.10
2018-11-10T16:56:52.448Z,34.33
2018-11-10T16:59:21.249Z,34.07
2018-11-10T17:01:49.987Z,27.13
2018-11-10T17:04:18.435Z,28.30
2018-11-10T17:06:47.710Z,30.90
2018-11-10T17:09:16.146Z,31.07
2018-11-10T17:11:44.860Z,25.13
2018-11-10T17:14:14.319Z,26.37
2018-11-10T17:16:42.730Z,27.97
2018-11-10T17:19:17.230Z,22.90
2018-11-10T17:21:46.763Z,26.37
2018-11-10T17:24:15.141Z,27.07
2018-11-10T17:26:44.144Z,26.67
2018-11-10T17:29:12.768Z,26.40
2018-11-10T17:31:41.298Z,32.20
2018-11-10T17:34:10.065Z,25.90
2018-11-10T17:36:38.991Z,26.93
2018-11-10T17:39:09.091Z,28.70
2018-11-10T17:41:37.958Z,27.53
2018-11-10T17:44:07.485Z,24.87
2018-11-10T17:46:36.251Z,26.13
2018-11-10T17:49:05.037Z,37.53
2018-11-10T17:51:33.630Z,28.23
2018-11-10T17:54:02.582Z,28.70
2018-11-10T17:56:31.147Z,32.10
2018-11-10T17:58:59.613Z,32.37
2018-11-10T18:01:28.491Z,37.90
2018-11-10T18:03:57.283Z,35.73
2018-11-10T18:06:26.552Z,30.37
2018-11-10T18:08:55.082Z,36.70
2018-11-10T18:11:23.836Z,35.27
2018-11-10T18:13:52.275Z,40.90
2018-11-10T18:16:21.348Z,36.40
2018-11-10T18:18:50.466Z,36.13
2018-11-10T18:21:19.216Z,39.37
2018-11-10T18:23:47.683Z,39.80
2018-11-10T18:26:16.204Z,38.43
2018-11-10T18:28:44.673Z,42.50
2018-11-10T18:31:13.486Z,41.80
2018-11-10T18:33:42.077Z,40.80
2018-11-10T18:36:10.524Z,76.27
2018-11-10T18:38:39.266Z,42.30
2018-11-10T18:41:08.238Z,44.70
2018-11-10T18:43:37.120Z,95.83
2018-11-10T18:46:06.239Z,48.03
2018-11-10T18:48:35.930Z,82.17
2018-11-10T18:51:04.490Z,43.87
2018-11-10T18:53:33.026Z,142.43
2018-11-10T18:56:01.894Z,121.47
2018-11-10T18:58:30.793Z,197.10
2018-11-10T19:00:59.712Z,88.67
2018-11-10T19:03:29.058Z,79.60
2018-11-10T19:05:57.568Z,56.50
2018-11-10T19:08:26.958Z,83.40
2018-11-10T19:10:56.332Z,54.33
2018-11-10T19:13:25.874Z,73.53
2018-11-10T19:15:54.739Z,45.90
2018-11-10T19:18:23.853Z,77.70
2018-11-10T19:20:53.201Z,71.13
2018-11-10T19:23:21.941Z,68.17
2018-11-10T19:25:51.114Z,48.13
2018-11-10T19:28:21.977Z,67.10
2018-11-10T19:30:50.652Z,81.07
2018-11-10T19:33:19.751Z,77.27
2018-11-10T19:35:48.219Z,54.03
2018-11-10T19:38:16.961Z,81.70
2018-11-10T19:40:45.583Z,160.57
2018-11-10T19:43:14.068Z,175.13
2018-11-10T19:45:43.689Z,135.00
2018-11-10T19:48:12.738Z,196.07
2018-11-10T19:50:42.046Z,126.37
2018-11-10T19:53:11.274Z,178.03
2018-11-10T19:55:40.362Z,135.43
2018-11-10T19:58:09.881Z,96.80
2018-11-10T20:00:38.650Z,98.83
2018-11-10T20:03:07.699Z,60.73
2018-11-10T20:05:36.364Z,75.90
2018-11-10T20:08:05.162Z,106.67
2018-11-10T20:10:33.946Z,43.20
2018-11-10T20:13:02.535Z,63.00
2018-11-10T20:15:31.248Z,62.63
2018-11-10T20:17:59.773Z,66.53
2018-11-10T20:20:28.926Z,119.60
2018-11-10T20:22:57.829Z,100.20
2018-11-10T20:25:27.136Z,41.67
2018-11-10T20:27:57.157Z,111.03
2018-11-10T20:30:26.554Z,97.83
2018-11-10T20:32:55.968Z,41.80
2018-11-10T20:35:25.368Z,168.47
2018-11-10T20:37:54.186Z,55.03
2018-11-10T20:40:23.185Z,29.30
2018-11-10T20:42:52.491Z,47.73
2018-11-10T20:45:22.317Z,36.80
2018-11-10T20:47:51.420Z,33.47
2018-11-10T20:50:20.865Z,51.00
2018-11-10T20:52:49.899Z,96.03
2018-11-10T20:55:19.110Z,37.23
2018-11-10T20:57:48.008Z,98.63
2018-11-10T21:00:18.527Z,36.13
2018-11-10T21:02:47.296Z,51.60
2018-11-10T21:05:16.540Z,114.07
2018-11-10T21:07:45.432Z,96.40
2018-11-10T21:10:15.813Z,59.13
2018-11-10T21:12:45.592Z,39.60
2018-11-10T21:15:15.477Z,55.10
2018-11-10T21:17:44.154Z,35.27
2018-11-10T21:20:14.456Z,57.17
2018-11-10T21:22:43.579Z,38.33
2018-11-10T21:25:14.177Z,97.30
2018-11-10T21:27:43.437Z,83.47
2018-11-10T21:30:15.395Z,56.00
2018-11-10T21:32:44.484Z,34.47
2018-11-10T21:35:13.742Z,38.17
2018-11-10T21:37:42.178Z,45.47
2018-11-10T21:40:13.911Z,40.13
2018-11-10T21:42:42.596Z,61.57
2018-11-10T21:45:12.461Z,52.03
2018-11-10T21:47:41.461Z,48.37
2018-11-10T21:50:14.680Z,35.00
2018-11-10T21:52:44.280Z,35.03
2018-11-10T21:55:14.986Z,49.40
2018-11-10T21:57:44.365Z,31.17
2018-11-10T22:00:14.574Z,32.00
2018-11-10T22:02:44.433Z,68.47
2018-11-10T22:05:13.102Z,28.60
2018-11-10T22:07:41.649Z,46.20
2018-11-10T22:10:12.483Z,30.30
2018-11-10T22:12:41.425Z,37.17
2018-11-10T22:15:12.799Z,27.27
2018-11-10T22:17:42.346Z,30.37
2018-11-10T22:20:12.763Z,43.80
2018-11-10T22:22:41.442Z,39.90
2018-11-10T22:25:11.963Z,38.37
2018-11-10T22:27:42.491Z,41.10
2018-11-10T22:30:13.045Z,29.37
2018-11-10T22:32:42.283Z,85.83
2018-11-10T22:35:10.941Z,27.43
2018-11-10T22:37:40.330Z,45.53
2018-11-10T22:40:10.972Z,60.83
2018-11-10T22:42:40.103Z,36.77
2018-11-10T22:45:10.608Z,85.93
2018-11-10T22:47:39.881Z,70.83
2018-11-10T22:50:10.324Z,33.40
2018-11-10T22:52:39.188Z,30.77
2018-11-10T22:55:08.786Z,30.57
2018-11-10T22:57:37.205Z,46.50
2018-11-10T23:00:17.836Z,42.40
2018-11-10T23:02:48.075Z,81.43
2018-11-10T23:05:17.272Z,39.37
2018-11-10T23:07:45.728Z,28.10
2018-11-10T23:10:15.357Z,52.93
2018-11-10T23:12:45.105Z,30.50
2018-11-10T23:15:13.940Z,36.40
2018-11-10T23:17:42.748Z,51.47
2018-11-10T23:20:12.585Z,57.23
2018-11-10T23:22:41.687Z,43.93
2018-11-10T23:25:12.067Z,42.73
2018-11-10T23:27:41.192Z,48.20
2018-11-10T23:30:12.083Z,69.80
2018-11-10T23:32:40.971Z,49.77
2018-11-10T23:35:10.200Z,41.03
2018-11-10T23:37:39.144Z,33.93
2018-11-10T23:40:10.686Z,53.97
2018-11-10T23:42:40.008Z,32.73
2018-11-10T23:45:08.633Z,32.70
2018-11-10T23:47:37.488Z,52.87
2018-11-10T23:50:07.447Z,57.47
2018-11-10T23:52:36.101Z,53.67
2018-11-10T23:55:04.930Z,93.83
2018-11-10T23:57:33.452Z,117.70
